Station Historical Data
Daily Summary for January 26, 2017 Units:  English    Metric   Both
« Previous Day
Next Day »
Daily Weekly Monthly Yearly Custom
  High: Low: Average:
Temperature: 45.4 °F 34.4 °F 36.8 °F
Dew Point: 40.2 °F 29.8 °F 33.3 °F
Humidity: 93% 81% 87%
Wind Speed: 24.0mph 2.0mph 8.5mph
Wind Gust: 28.0mph - -
Wind- - WSW
Pressure: 29.65 in 29.40 in -
Precipitation: 0.00 in    
Historical Graphs
 
 
Tabular Data for January 26, 2017
Time Temperature Dew Point Pressure Wind Wind Speed Wind Gust Humidity Rainfall Rate (Hourly)
00:04 45.4 °F 40.2 °F 29.43 in West 6.0 mph 19.0 mph 82% 0.00 in
00:09 45.0 °F 40.1 °F 29.42 in WSW 10.0 mph 19.0 mph 83% 0.00 in
00:14 44.7 °F 39.9 °F 29.43 in WSW 9.0 mph 23.0 mph 83% 0.00 in
00:19 44.5 °F 39.7 °F 29.43 in SW 8.0 mph 16.0 mph 83% 0.00 in
00:24 44.3 °F 39.5 °F 29.42 in WSW 9.0 mph 18.0 mph 83% 0.00 in
00:29 44.2 °F 39.4 °F 29.42 in SSW 7.0 mph 15.0 mph 83% 0.00 in
00:34 44.1 °F 39.0 °F 29.43 in SW 7.0 mph 22.0 mph 82% 0.00 in
00:39 43.6 °F 38.8 °F 29.43 in WSW 10.0 mph 22.0 mph 83% 0.00 in
00:44 43.1 °F 38.0 °F 29.43 in SW 10.0 mph 23.0 mph 82% 0.00 in
00:49 42.6 °F 37.8 °F 29.43 in WSW 10.0 mph 23.0 mph 83% 0.00 in
00:54 42.1 °F 37.3 °F 29.43 in SW 20.0 mph 20.0 mph 83% 0.00 in
00:59 41.7 °F 37.2 °F 29.44 in West 19.0 mph 22.0 mph 84% 0.00 in
01:04 41.3 °F 37.1 °F 29.43 in WSW 6.0 mph 19.0 mph 85% 0.00 in
01:09 41.0 °F 36.8 °F 29.43 in WSW 10.0 mph 19.0 mph 85% 0.00 in
01:14 40.6 °F 36.4 °F 29.44 in WSW 10.0 mph 18.0 mph 85% 0.00 in
01:19 40.4 °F 36.2 °F 29.44 in WSW 11.0 mph 20.0 mph 85% 0.00 in
01:24 40.2 °F 36.3 °F 29.44 in WSW 10.0 mph 20.0 mph 86% 0.00 in
01:29 40.0 °F 36.2 °F 29.44 in WSW 12.0 mph 19.0 mph 86% 0.00 in
01:34 39.9 °F 36.1 °F 29.44 in WSW 8.0 mph 22.0 mph 86% 0.00 in
01:39 39.7 °F 35.9 °F 29.44 in SW 10.0 mph 18.0 mph 86% 0.00 in
01:44 39.6 °F 35.8 °F 29.44 in WSW 10.0 mph 19.0 mph 86% 0.00 in
01:49 39.5 °F 36.0 °F 29.43 in WSW 9.0 mph 19.0 mph 87% 0.00 in
01:54 39.4 °F 35.9 °F 29.44 in WSW 9.0 mph 18.0 mph 87% 0.00 in
01:59 39.3 °F 35.8 °F 29.44 in WSW 8.0 mph 22.0 mph 87% 0.00 in
02:04 39.2 °F 35.7 °F 29.44 in SW 8.0 mph 22.0 mph 87% 0.00 in
02:09 39.1 °F 35.6 °F 29.44 in SW 9.0 mph 17.0 mph 87% 0.00 in
02:14 39.0 °F 35.5 °F 29.45 in SW 9.0 mph 18.0 mph 87% 0.00 in
02:19 39.0 °F 35.5 °F 29.44 in West 8.0 mph 16.0 mph 87% 0.00 in
02:24 39.0 °F 35.5 °F 29.45 in West 7.0 mph 17.0 mph 87% 0.00 in
02:29 39.0 °F 35.5 °F 29.44 in West 10.0 mph 20.0 mph 87% 0.00 in
02:34 39.0 °F 35.5 °F 29.44 in SW 9.0 mph 22.0 mph 87% 0.00 in
02:39 39.0 °F 35.5 °F 29.44 in SW 3.0 mph 17.0 mph 87% 0.00 in
02:44 38.9 °F 35.4 °F 29.43 in WSW 4.0 mph 20.0 mph 87% 0.00 in
02:49 38.9 °F 35.4 °F 29.44 in WSW 8.0 mph 20.0 mph 87% 0.00 in
02:54 39.0 °F 35.5 °F 29.43 in WSW 8.0 mph 19.0 mph 87% 0.00 in
02:59 38.9 °F 35.4 °F 29.43 in WSW 8.0 mph 16.0 mph 87% 0.00 in
03:04 38.8 °F 35.3 °F 29.43 in West 5.0 mph 16.0 mph 87% 0.00 in
03:09 38.8 °F 35.3 °F 29.43 in WSW 7.0 mph 16.0 mph 87% 0.00 in
03:14 38.7 °F 35.2 °F 29.43 in SW 8.0 mph 18.0 mph 87% 0.00 in
03:19 38.6 °F 35.1 °F 29.43 in SW 8.0 mph 17.0 mph 87% 0.00 in
03:24 38.5 °F 35.0 °F 29.43 in West 6.0 mph 15.0 mph 87% 0.00 in
03:29 38.5 °F 35.0 °F 29.43 in SW 7.0 mph 18.0 mph 87% 0.00 in
03:34 38.4 °F 34.9 °F 29.43 in SW 9.0 mph 17.0 mph 87% 0.00 in
03:39 38.3 °F 34.8 °F 29.43 in WSW 7.0 mph 18.0 mph 87% 0.00 in
03:44 38.3 °F 34.8 °F 29.43 in WSW 9.0 mph 19.0 mph 87% 0.00 in
03:49 38.2 °F 34.7 °F 29.42 in WSW 7.0 mph 16.0 mph 87% 0.00 in
03:54 38.2 °F 34.7 °F 29.43 in SW 9.0 mph 16.0 mph 87% 0.00 in
03:59 38.1 °F 34.6 °F 29.42 in SW 8.0 mph 16.0 mph 87% 0.00 in
04:04 38.0 °F 34.8 °F 29.42 in SW 7.0 mph 13.0 mph 88% 0.00 in
04:09 38.0 °F 34.8 °F 29.42 in SW 8.0 mph 14.0 mph 88% 0.00 in
04:14 38.0 °F 34.8 °F 29.42 in SW 8.0 mph 17.0 mph 88% 0.00 in
04:19 37.9 °F 34.7 °F 29.42 in WSW 14.0 mph 18.0 mph 88% 0.00 in
04:24 37.9 °F 34.7 °F 29.42 in SW 4.0 mph 14.0 mph 88% 0.00 in
04:29 37.8 °F 34.6 °F 29.42 in SW 8.0 mph 17.0 mph 88% 0.00 in
04:34 37.8 °F 34.6 °F 29.42 in WSW 9.0 mph 15.0 mph 88% 0.00 in
04:39 37.9 °F 34.7 °F 29.42 in SW 8.0 mph 15.0 mph 88% 0.00 in
04:49 37.8 °F 34.6 °F 29.42 in West 6.0 mph 15.0 mph 88% 0.00 in
04:54 37.8 °F 34.6 °F 29.42 in SW 4.0 mph 13.0 mph 88% 0.00 in
04:59 37.8 °F 34.6 °F 29.42 in SW 8.0 mph 16.0 mph 88% 0.00 in
05:04 37.7 °F 34.5 °F 29.42 in SW 8.0 mph 16.0 mph 88% 0.00 in
05:09 37.7 °F 34.5 °F 29.42 in SW 6.0 mph 18.0 mph 88% 0.00 in
05:14 37.7 °F 34.5 °F 29.42 in SW 8.0 mph 18.0 mph 88% 0.00 in
05:19 37.6 °F 34.4 °F 29.42 in SW 14.0 mph 19.0 mph 88% 0.00 in
05:24 37.5 °F 34.3 °F 29.42 in WSW 9.0 mph 18.0 mph 88% 0.00 in
05:29 37.5 °F 34.3 °F 29.42 in SW 9.0 mph 19.0 mph 88% 0.00 in
05:34 37.5 °F 34.3 °F 29.42 in SW 9.0 mph 19.0 mph 88% 0.00 in
05:39 37.5 °F 34.0 °F 29.42 in SW 13.0 mph 14.0 mph 87% 0.00 in
05:44 37.4 °F 33.9 °F 29.42 in WSW 14.0 mph 17.0 mph 87% 0.00 in
05:49 37.5 °F 34.0 °F 29.42 in WSW 4.0 mph 17.0 mph 87% 0.00 in
05:54 37.4 °F 33.9 °F 29.43 in SW 17.0 mph 18.0 mph 87% 0.00 in
05:59 37.4 °F 33.9 °F 29.42 in WSW 9.0 mph 17.0 mph 87% 0.00 in
06:04 37.4 °F 33.9 °F 29.42 in WSW 8.0 mph 17.0 mph 87% 0.00 in
06:09 37.3 °F 33.5 °F 29.42 in SW 7.0 mph 15.0 mph 86% 0.00 in
06:14 37.3 °F 33.5 °F 29.43 in West 11.0 mph 18.0 mph 86% 0.00 in
06:19 37.3 °F 33.5 °F 29.43 in SW 14.0 mph 17.0 mph 86% 0.00 in
06:24 37.3 °F 33.5 °F 29.43 in West 5.0 mph 15.0 mph 86% 0.00 in
06:29 37.3 °F 33.2 °F 29.43 in WSW 10.0 mph 18.0 mph 85% 0.00 in
06:34 37.4 °F 33.3 °F 29.43 in SW 9.0 mph 18.0 mph 85% 0.00 in
06:39 37.4 °F 33.0 °F 29.43 in WSW 10.0 mph 17.0 mph 84% 0.00 in
06:44 37.5 °F 33.1 °F 29.43 in WSW 11.0 mph 22.0 mph 84% 0.00 in
06:49 37.4 °F 33.0 °F 29.43 in WSW 9.0 mph 22.0 mph 84% 0.00 in
06:54 37.4 °F 33.0 °F 29.43 in WSW 8.0 mph 19.0 mph 84% 0.00 in
06:59 37.4 °F 33.3 °F 29.43 in SW 9.0 mph 18.0 mph 85% 0.00 in
07:04 37.4 °F 33.3 °F 29.43 in SSW 9.0 mph 16.0 mph 85% 0.00 in
07:09 37.4 °F 33.3 °F 29.43 in WSW 9.0 mph 18.0 mph 85% 0.00 in
07:14 37.4 °F 33.3 °F 29.43 in WSW 9.0 mph 15.0 mph 85% 0.00 in
07:19 37.4 °F 33.3 °F 29.43 in WSW 9.0 mph 25.0 mph 85% 0.00 in
07:24 37.4 °F 33.0 °F 29.43 in WSW 8.0 mph 20.0 mph 84% 0.00 in
07:29 37.4 °F 33.0 °F 29.43 in West 9.0 mph 19.0 mph 84% 0.00 in
07:34 37.4 °F 32.7 °F 29.43 in West 7.0 mph 24.0 mph 83% 0.00 in
07:39 37.4 °F 32.7 °F 29.42 in WSW 11.0 mph 24.0 mph 83% 0.00 in
07:44 37.4 °F 32.7 °F 29.42 in WSW 10.0 mph 20.0 mph 83% 0.00 in
07:49 37.4 °F 32.7 °F 29.42 in WSW 10.0 mph 20.0 mph 83% 0.00 in
07:54 37.4 °F 32.4 °F 29.42 in WSW 10.0 mph 20.0 mph 82% 0.00 in
07:59 37.3 °F 32.3 °F 29.42 in WSW 9.0 mph 16.0 mph 82% 0.00 in
08:04 37.4 °F 32.4 °F 29.42 in WSW 10.0 mph 21.0 mph 82% 0.00 in
08:09 37.3 °F 32.3 °F 29.42 in SW 6.0 mph 21.0 mph 82% 0.00 in
08:14 37.2 °F 32.2 °F 29.42 in WSW 9.0 mph 20.0 mph 82% 0.00 in
08:19 37.1 °F 32.4 °F 29.42 in South 11.0 mph 20.0 mph 83% 0.00 in
08:24 37.0 °F 32.3 °F 29.42 in WSW 13.0 mph 25.0 mph 83% 0.00 in
08:29 36.9 °F 32.5 °F 29.42 in SW 16.0 mph 22.0 mph 84% 0.00 in
08:34 36.7 °F 32.6 °F 29.42 in West 13.0 mph 22.0 mph 85% 0.00 in
08:39 36.6 °F 32.5 °F 29.42 in SW 8.0 mph 21.0 mph 85% 0.00 in
08:44 36.5 °F 32.7 °F 29.42 in SW 11.0 mph 21.0 mph 86% 0.00 in
08:49 36.4 °F 32.6 °F 29.42 in WSW 11.0 mph 22.0 mph 86% 0.00 in
08:54 36.3 °F 32.5 °F 29.42 in WSW 11.0 mph 23.0 mph 86% 0.00 in
08:59 36.3 °F 32.8 °F 29.42 in WSW 11.0 mph 23.0 mph 87% 0.00 in
09:04 36.2 °F 32.7 °F 29.42 in WSW 10.0 mph 19.0 mph 87% 0.00 in
09:09 36.1 °F 32.6 °F 29.42 in WSW 6.0 mph 20.0 mph 87% 0.00 in
09:14 36.0 °F 32.8 °F 29.42 in WSW 10.0 mph 20.0 mph 88% 0.00 in
09:19 36.0 °F 32.8 °F 29.42 in WSW 9.0 mph 17.0 mph 88% 0.00 in
09:24 36.1 °F 32.9 °F 29.42 in SW 8.0 mph 22.0 mph 88% 0.00 in
09:29 36.0 °F 32.8 °F 29.42 in WNW 8.0 mph 21.0 mph 88% 0.00 in
09:34 35.9 °F 32.7 °F 29.42 in SW 10.0 mph 19.0 mph 88% 0.00 in
09:39 35.9 °F 33.0 °F 29.42 in West 10.0 mph 21.0 mph 89% 0.00 in
09:44 35.9 °F 33.0 °F 29.43 in WSW 8.0 mph 21.0 mph 89% 0.00 in
09:49 35.7 °F 32.8 °F 29.42 in WSW 11.0 mph 21.0 mph 89% 0.00 in
09:54 35.6 °F 32.7 °F 29.42 in WSW 12.0 mph 21.0 mph 89% 0.00 in
09:59 35.6 °F 33.0 °F 29.43 in WSW 11.0 mph 19.0 mph 90% 0.00 in
10:04 35.6 °F 33.0 °F 29.42 in WSW 10.0 mph 19.0 mph 90% 0.00 in
10:09 35.6 °F 33.0 °F 29.43 in WSW 11.0 mph 19.0 mph 90% 0.00 in
10:14 35.6 °F 33.0 °F 29.43 in West 7.0 mph 20.0 mph 90% 0.00 in
10:19 35.4 °F 32.8 °F 29.43 in WSW 11.0 mph 22.0 mph 90% 0.00 in
10:24 35.4 °F 32.8 °F 29.43 in WSW 10.0 mph 22.0 mph 90% 0.00 in
10:29 35.4 °F 32.8 °F 29.43 in SW 11.0 mph 16.0 mph 90% 0.00 in
10:34 35.3 °F 32.7 °F 29.43 in WSW 11.0 mph 23.0 mph 90% 0.00 in
10:39 35.3 °F 32.7 °F 29.43 in West 13.0 mph 24.0 mph 90% 0.01 in
10:44 35.3 °F 32.9 °F 29.43 in West 6.0 mph 20.0 mph 91% 0.01 in
10:49 35.2 °F 32.8 °F 29.43 in WSW 8.0 mph 20.0 mph 91% 0.01 in
10:54 35.3 °F 32.9 °F 29.43 in WSW 10.0 mph 20.0 mph 91% 0.01 in
10:59 35.3 °F 32.9 °F 29.43 in WSW 9.0 mph 18.0 mph 91% 0.01 in
11:04 35.3 °F 32.9 °F 29.43 in WSW 10.0 mph 18.0 mph 91% 0.01 in
11:09 35.2 °F 32.8 °F 29.43 in WSW 10.0 mph 21.0 mph 91% 0.01 in
11:14 35.2 °F 32.8 °F 29.43 in WSW 10.0 mph 21.0 mph 91% 0.01 in
11:19 35.1 °F 32.7 °F 29.42 in WSW 9.0 mph 19.0 mph 91% 0.01 in
11:24 35.1 °F 32.7 °F 29.42 in WSW 8.0 mph 22.0 mph 91% 0.01 in
11:29 35.1 °F 32.7 °F 29.42 in SW 5.0 mph 25.0 mph 91% 0.02 in
11:34 35.2 °F 33.1 °F 29.42 in WSW 8.0 mph 18.0 mph 92% 0.02 in
11:39 35.2 °F 32.8 °F 29.42 in WSW 11.0 mph 20.0 mph 91% 0.01 in
11:44 35.2 °F 33.1 °F 29.42 in WSW 10.0 mph 20.0 mph 92% 0.01 in
11:49 35.0 °F 32.6 °F 29.41 in WNW 7.0 mph 19.0 mph 91% 0.01 in
11:54 35.0 °F 32.9 °F 29.41 in South 18.0 mph 23.0 mph 92% 0.01 in
11:59 34.8 °F 32.7 °F 29.41 in WSW 10.0 mph 23.0 mph 92% 0.02 in
12:04 35.0 °F 32.9 °F 29.41 in WSW 10.0 mph 22.0 mph 92% 0.02 in
12:09 35.1 °F 33.0 °F 29.41 in SW 10.0 mph 17.0 mph 92% 0.02 in
12:14 35.2 °F 33.1 °F 29.41 in West 9.0 mph 24.0 mph 92% 0.02 in
12:19 35.2 °F 33.1 °F 29.41 in WSW 12.0 mph 20.0 mph 92% 0.03 in
12:24 35.2 °F 33.1 °F 29.40 in SW 16.0 mph 23.0 mph 92% 0.03 in
12:29 35.2 °F 33.1 °F 29.41 in WSW 11.0 mph 24.0 mph 92% 0.02 in
12:34 35.2 °F 33.1 °F 29.41 in WSW 10.0 mph 24.0 mph 92% 0.02 in
12:39 35.1 °F 33.0 °F 29.41 in WSW 10.0 mph 20.0 mph 92% 0.02 in
12:44 35.1 °F 33.0 °F 29.40 in WSW 11.0 mph 22.0 mph 92% 0.03 in
12:49 35.2 °F 33.1 °F 29.40 in SW 24.0 mph 24.0 mph 92% 0.03 in
12:54 35.3 °F 33.2 °F 29.40 in SW 7.0 mph 24.0 mph 92% 0.03 in
12:59 35.3 °F 33.2 °F 29.40 in SW 8.0 mph 28.0 mph 92% 0.02 in
13:04 35.4 °F 33.3 °F 29.40 in WSW 9.0 mph 28.0 mph 92% 0.02 in
13:09 35.2 °F 33.1 °F 29.41 in WSW 10.0 mph 25.0 mph 92% 0.02 in
13:14 35.2 °F 33.1 °F 29.40 in WSW 18.0 mph 21.0 mph 92% 0.02 in
13:19 35.1 °F 33.0 °F 29.40 in SW 5.0 mph 17.0 mph 92% 0.01 in
13:24 35.3 °F 33.2 °F 29.41 in WSW 11.0 mph 17.0 mph 92% 0.01 in
13:29 35.3 °F 33.2 °F 29.41 in WSW 6.0 mph 17.0 mph 92% 0.02 in
13:34 35.4 °F 33.3 °F 29.41 in WSW 9.0 mph 20.0 mph 92% 0.02 in
13:39 35.3 °F 33.2 °F 29.41 in WSW 10.0 mph 21.0 mph 92% 0.02 in
13:44 35.3 °F 33.2 °F 29.41 in WSW 10.0 mph 21.0 mph 92% 0.01 in
13:49 35.3 °F 33.2 °F 29.41 in West 9.0 mph 19.0 mph 92% 0.01 in
13:54 35.4 °F 33.3 °F 29.41 in SW 9.0 mph 19.0 mph 92% 0.02 in
13:59 35.3 °F 33.2 °F 29.42 in SW 4.0 mph 18.0 mph 92% 0.02 in
14:04 35.4 °F 33.3 °F 29.42 in WSW 8.0 mph 18.0 mph 92% 0.02 in
14:09 35.4 °F 33.3 °F 29.42 in WSW 7.0 mph 16.0 mph 92% 0.02 in
14:14 35.4 °F 33.6 °F 29.42 in WNW 7.0 mph 17.0 mph 93% 0.02 in
14:19 35.4 °F 33.6 °F 29.42 in WSW 6.0 mph 16.0 mph 93% 0.02 in
14:24 35.5 °F 33.7 °F 29.42 in West 12.0 mph 17.0 mph 93% 0.02 in
14:29 35.6 °F 33.8 °F 29.43 in WSW 13.0 mph 15.0 mph 93% 0.01 in
14:34 35.7 °F 33.9 °F 29.43 in WSW 7.0 mph 15.0 mph 93% 0.01 in
14:39 35.9 °F 34.1 °F 29.43 in WSW 7.0 mph 15.0 mph 93% 0.01 in
14:44 36.1 °F 34.3 °F 29.43 in WSW 6.0 mph 15.0 mph 93% 0.02 in
14:49 36.2 °F 34.4 °F 29.44 in WSW 5.0 mph 13.0 mph 93% 0.02 in
14:54 36.4 °F 34.6 °F 29.44 in West 5.0 mph 13.0 mph 93% 0.01 in
14:59 36.5 °F 34.7 °F 29.45 in WSW 3.0 mph 8.0 mph 93% 0.01 in
15:04 36.6 °F 34.5 °F 29.45 in WNW 8.0 mph 13.0 mph 92% 0.01 in
15:09 36.7 °F 34.6 °F 29.46 in WNW 7.0 mph 14.0 mph 92% 0.01 in
15:14 36.6 °F 34.5 °F 29.46 in West 6.0 mph 14.0 mph 92% 0.01 in
15:19 36.6 °F 34.5 °F 29.47 in WNW 6.0 mph 11.0 mph 92% 0.02 in
15:24 36.6 °F 34.5 °F 29.47 in WNW 12.0 mph 13.0 mph 92% 0.02 in
15:34 36.2 °F 33.8 °F 29.48 in NW 4.0 mph 11.0 mph 91% 0.03 in
15:39 36.1 °F 33.7 °F 29.48 in WNW 6.0 mph 11.0 mph 91% 0.04 in
15:44 35.9 °F 33.5 °F 29.48 in WNW 5.0 mph 9.0 mph 91% 0.03 in
15:49 35.8 °F 33.4 °F 29.49 in WNW 6.0 mph 17.0 mph 91% 0.04 in
15:54 35.7 °F 33.1 °F 29.49 in West 8.0 mph 17.0 mph 90% 0.04 in
15:59 35.9 °F 33.0 °F 29.50 in West 10.0 mph 13.0 mph 89% 0.04 in
16:04 36.1 °F 32.9 °F 29.50 in West 3.0 mph 15.0 mph 88% 0.04 in
16:19 36.2 °F 32.4 °F 29.51 in WNW 10.0 mph 15.0 mph 86% 0.03 in
16:24 36.3 °F 32.5 °F 29.52 in West 9.0 mph 12.0 mph 86% 0.03 in
16:29 36.2 °F 32.1 °F 29.52 in WNW 11.0 mph 16.0 mph 85% 0.02 in
16:34 36.2 °F 31.8 °F 29.52 in NNW 8.0 mph 18.0 mph 84% 0.02 in
16:39 36.2 °F 31.5 °F 29.53 in WNW 9.0 mph 18.0 mph 83% 0.01 in
16:49 36.1 °F 31.7 °F 29.53 in WNW 5.0 mph 12.0 mph 84% 0.00 in
16:59 35.9 °F 31.8 °F 29.54 in WNW 7.0 mph 18.0 mph 85% 0.00 in
17:09 35.9 °F 31.8 °F 29.54 in West 7.0 mph 14.0 mph 85% 0.00 in
17:14 35.8 °F 31.7 °F 29.54 in West 5.0 mph 11.0 mph 85% 0.00 in
17:19 35.7 °F 31.6 °F 29.55 in West 5.0 mph 9.0 mph 85% 0.00 in
17:24 35.7 °F 31.6 °F 29.55 in West 3.0 mph 8.0 mph 85% 0.00 in
17:29 35.6 °F 31.8 °F 29.55 in West 3.0 mph 6.0 mph 86% 0.00 in
17:34 35.6 °F 31.8 °F 29.55 in WSW 2.0 mph 9.0 mph 86% 0.00 in
17:39 35.6 °F 31.8 °F 29.55 in WSW 4.0 mph 8.0 mph 86% 0.00 in
17:49 35.7 °F 32.2 °F 29.56 in WSW 4.0 mph 8.0 mph 87% 0.00 in
17:54 35.7 °F 32.2 °F 29.56 in WSW 4.0 mph 8.0 mph 87% 0.00 in
17:59 35.7 °F 32.2 °F 29.56 in WSW 4.0 mph 7.0 mph 87% 0.00 in
18:04 35.7 °F 32.5 °F 29.56 in WSW 4.0 mph 9.0 mph 88% 0.00 in
18:09 35.7 °F 32.5 °F 29.56 in WSW 3.0 mph 9.0 mph 88% 0.00 in
18:19 35.9 °F 32.7 °F 29.57 in WSW 5.0 mph 13.0 mph 88% 0.00 in
18:24 35.9 °F 32.7 °F 29.57 in WSW 7.0 mph 11.0 mph 88% 0.00 in
18:29 36.1 °F 32.6 °F 29.57 in SW 11.0 mph 12.0 mph 87% 0.00 in
18:34 36.2 °F 32.7 °F 29.57 in West 7.0 mph 18.0 mph 87% 0.00 in
18:59 36.3 °F 32.5 °F 29.58 in West 7.0 mph 17.0 mph 86% 0.00 in
19:04 36.3 °F 32.2 °F 29.59 in West 6.0 mph 12.0 mph 85% 0.00 in
19:09 36.2 °F 32.1 °F 29.59 in West 6.0 mph 13.0 mph 85% 0.00 in
19:14 36.1 °F 32.0 °F 29.59 in West 7.0 mph 17.0 mph 85% 0.00 in
19:19 36.1 °F 31.7 °F 29.59 in West 17.0 mph 17.0 mph 84% 0.00 in
19:24 36.1 °F 31.7 °F 29.59 in NW 8.0 mph 17.0 mph 84% 0.00 in
19:29 36.0 °F 31.6 °F 29.60 in West 5.0 mph 17.0 mph 84% 0.00 in
19:34 35.9 °F 31.5 °F 29.60 in WSW 4.0 mph 12.0 mph 84% 0.00 in
19:39 35.7 °F 31.3 °F 29.60 in WSW 13.0 mph 15.0 mph 84% 0.00 in
19:44 35.5 °F 30.8 °F 29.60 in West 10.0 mph 12.0 mph 83% 0.00 in
19:49 35.4 °F 30.8 °F 29.60 in NNW 4.0 mph 13.0 mph 83% 0.00 in
19:54 35.2 °F 30.6 °F 29.60 in West 7.0 mph 15.0 mph 83% 0.00 in
19:59 35.0 °F 30.4 °F 29.60 in West 7.0 mph 16.0 mph 83% 0.00 in
20:05 35.0 °F 30.4 °F 29.60 in West 4.0 mph 10.0 mph 83% 0.00 in
20:14 34.8 °F 30.5 °F 29.61 in West 6.0 mph 14.0 mph 84% 0.00 in
20:19 34.7 °F 30.4 °F 29.61 in West 7.0 mph 14.0 mph 84% 0.00 in
20:24 34.6 °F 30.3 °F 29.61 in WSW 11.0 mph 13.0 mph 84% 0.00 in
20:29 34.6 °F 30.0 °F 29.61 in WSW 7.0 mph 14.0 mph 83% 0.00 in
20:34 34.6 °F 30.0 °F 29.61 in WNW 12.0 mph 15.0 mph 83% 0.00 in
20:39 34.4 °F 29.8 °F 29.61 in WSW 7.0 mph 12.0 mph 83% 0.00 in
20:44 34.4 °F 29.8 °F 29.61 in West 8.0 mph 15.0 mph 83% 0.00 in
20:49 34.5 °F 29.9 °F 29.61 in West 9.0 mph 13.0 mph 83% 0.00 in
20:54 34.4 °F 29.8 °F 29.61 in WSW 8.0 mph 16.0 mph 83% 0.00 in
21:04 34.5 °F 30.2 °F 29.61 in WSW 8.0 mph 24.0 mph 84% 0.00 in
21:09 34.4 °F 30.1 °F 29.62 in WSW 7.0 mph 24.0 mph 84% 0.00 in
21:14 34.4 °F 30.4 °F 29.62 in WSW 6.0 mph 12.0 mph 85% 0.00 in
21:19 34.4 °F 30.4 °F 29.62 in WSW 7.0 mph 14.0 mph 85% 0.00 in
21:24 34.6 °F 30.6 °F 29.62 in West 10.0 mph 18.0 mph 85% 0.00 in
21:29 34.7 °F 30.7 °F 29.62 in WSW 8.0 mph 18.0 mph 85% 0.00 in
21:34 34.8 °F 30.8 °F 29.62 in WSW 8.0 mph 18.0 mph 85% 0.00 in
21:39 35.0 °F 31.2 °F 29.62 in WSW 6.0 mph 17.0 mph 86% 0.00 in
21:44 35.0 °F 31.2 °F 29.63 in West 6.0 mph 13.0 mph 86% 0.00 in
21:49 35.1 °F 31.3 °F 29.63 in WSW 6.0 mph 18.0 mph 86% 0.00 in
21:54 35.1 °F 31.0 °F 29.63 in West 4.0 mph 14.0 mph 85% 0.00 in
21:59 35.1 °F 31.0 °F 29.63 in WSW 3.0 mph 14.0 mph 85% 0.00 in
22:09 35.2 °F 31.1 °F 29.63 in West 14.0 mph 18.0 mph 85% 0.00 in
22:19 35.3 °F 31.2 °F 29.63 in West 8.0 mph 17.0 mph 85% 0.00 in
22:29 35.4 °F 31.0 °F 29.64 in WSW 11.0 mph 16.0 mph 84% 0.00 in
22:39 35.4 °F 30.8 °F 29.64 in West 7.0 mph 16.0 mph 83% 0.00 in
22:44 35.5 °F 30.8 °F 29.64 in WSW 6.0 mph 14.0 mph 83% 0.00 in
22:49 35.5 °F 30.8 °F 29.64 in West 7.0 mph 14.0 mph 83% 0.00 in
22:59 35.4 °F 30.8 °F 29.64 in SW 6.0 mph 11.0 mph 83% 0.00 in
23:04 35.4 °F 30.5 °F 29.64 in West 8.0 mph 21.0 mph 82% 0.00 in
23:09 35.4 °F 30.5 °F 29.64 in WSW 9.0 mph 21.0 mph 82% 0.00 in
23:14 35.4 °F 30.5 °F 29.64 in WSW 8.0 mph 17.0 mph 82% 0.00 in
23:19 35.4 °F 30.5 °F 29.64 in WSW 14.0 mph 19.0 mph 82% 0.00 in
23:24 35.4 °F 30.5 °F 29.65 in WSW 8.0 mph 20.0 mph 82% 0.00 in
23:29 35.4 °F 30.1 °F 29.64 in West 8.0 mph 20.0 mph 81% 0.00 in
23:34 35.4 °F 30.1 °F 29.64 in West 8.0 mph 17.0 mph 81% 0.00 in
23:39 35.4 °F 30.1 °F 29.64 in West 9.0 mph 21.0 mph 81% 0.00 in
23:44 35.3 °F 30.4 °F 29.64 in West 8.0 mph 21.0 mph 82% 0.00 in
23:54 35.2 °F 30.3 °F 29.64 in WNW 3.0 mph 14.0 mph 82% 0.00 in
23:59 35.0 °F 29.8 °F 29.64 in WSW 6.0 mph 18.0 mph 81% 0.00 in
Buffalo, New York, USA
Compliments of Weather Underground - 2.25 mb